Time;durP1;ratioP1;P1;durP2;ratioP2;P2;SDS_P1;SDS_P2;PMS_P1;PMS_P2;Temp;Humidity;BMP_temperature;BMP_pressure;BME280_temperature;BME280_humidity;BME280_pressure;Samples;Min_cycle;Max_cycle;Signal;HPM_P1;HPM_P2
2023/01/31 00:00:08;;;;;;;4.93;4.40;;;5.20;99.90;;;;;;5019094;28;20246;-60
2023/01/31 00:02:34;;;;;;;4.43;3.97;;;5.10;99.90;;;;;;5019889;28;20468;-60
2023/01/31 00:04:59;;;;;;;5.47;3.90;;;5.20;99.90;;;;;;5026913;28;20185;-61
2023/01/31 00:07:25;;;;;;;5.73;4.00;;;4.60;99.90;;;;;;5017028;28;20190;-61
2023/01/31 00:09:50;;;;;;;5.33;4.40;;;5.10;99.90;;;;;;5016136;28;20192;-62
2023/01/31 00:12:16;;;;;;;6.40;4.10;;;4.70;99.90;;;;;;5020119;28;20229;-62
2023/01/31 00:14:41;;;;;;;4.27;3.80;;;5.00;99.90;;;;;;5020149;28;20237;-63
2023/01/31 00:17:07;;;;;;;6.17;3.97;;;5.10;99.90;;;;;;5015049;28;20206;-62
2023/01/31 00:19:33;;;;;;;6.53;4.30;;;5.10;99.90;;;;;;5017716;28;20192;-61
2023/01/31 00:21:58;;;;;;;4.77;4.30;;;5.10;99.90;;;;;;5018943;28;20272;-62
2023/01/31 00:24:24;;;;;;;5.40;3.93;;;4.90;99.90;;;;;;5013596;28;20232;-61
2023/01/31 00:26:55;;;;;;;5.90;4.20;;;5.10;99.90;;;;;;5020552;28;20240;-61
2023/01/31 00:29:22;;;;;;;8.95;4.28;;;4.90;99.90;;;;;;5020038;28;20721;-61
2023/01/31 00:31:47;;;;;;;4.78;3.42;;;4.90;99.90;;;;;;5020441;28;20224;-62
2023/01/31 00:34:13;;;;;;;9.13;4.57;;;4.80;99.90;;;;;;5016462;28;20204;-61
2023/01/31 00:36:39;;;;;;;6.17;3.77;;;4.80;99.90;;;;;;5019425;28;20695;-61
2023/01/31 00:39:06;;;;;;;4.82;3.70;;;4.70;99.90;;;;;;5020640;28;20192;-62
2023/01/31 00:41:34;;;;;;;5.00;4.18;;;4.90;99.90;;;;;;5021378;28;20280;-61
2023/01/31 00:44:00;;;;;;;5.72;4.10;;;4.60;99.90;;;;;;5015878;28;20215;-62
2023/01/31 00:46:26;;;;;;;4.68;4.15;;;4.70;99.90;;;;;;5021637;28;20305;-62
2023/01/31 00:48:53;;;;;;;6.93;4.40;;;4.40;99.90;;;;;;5016521;28;20185;-62
2023/01/31 00:51:19;;;;;;;4.47;4.00;;;4.70;99.90;;;;;;5017171;28;20261;-59
2023/01/31 00:53:45;;;;;;;5.32;3.63;;;4.60;99.90;;;;;;5013801;28;20669;-59
2023/01/31 00:56:13;;;;;;;5.60;3.75;;;4.40;99.90;;;;;;5026616;28;20210;-59
2023/01/31 00:58:39;;;;;;;4.13;3.33;;;4.70;99.90;;;;;;5016683;28;20189;-62
2023/01/31 01:01:09;;;;;;;9.10;4.30;;;4.20;99.90;;;;;;5017114;28;20196;-60
2023/01/31 01:03:36;;;;;;;5.57;3.47;;;4.20;99.90;;;;;;5004731;28;21024;-62
2023/01/31 01:06:02;;;;;;;3.85;3.45;;;3.80;99.90;;;;;;5024106;28;20385;-61
2023/01/31 01:08:28;;;;;;;7.03;3.50;;;4.30;99.90;;;;;;5020610;28;20274;-61
2023/01/31 01:10:53;;;;;;;7.72;3.50;;;4.30;99.90;;;;;;5002300;28;20472;-62
2023/01/31 01:13:19;;;;;;;7.63;3.83;;;4.20;99.90;;;;;;5021827;28;20681;-61
2023/01/31 01:15:45;;;;;;;7.00;3.90;;;4.50;99.90;;;;;;5017959;28;20728;-61
2023/01/31 01:18:10;;;;;;;4.23;3.23;;;4.50;99.90;;;;;;5022239;28;20503;-61
2023/01/31 01:20:36;;;;;;;8.17;3.77;;;4.20;99.90;;;;;;5023542;28;20197;-61
2023/01/31 01:23:01;;;;;;;5.33;3.53;;;4.50;99.90;;;;;;5024413;28;20211;-60
2023/01/31 01:25:27;;;;;;;7.30;4.07;;;3.90;99.90;;;;;;5019796;28;20200;-61
2023/01/31 01:27:53;;;;;;;6.07;4.00;;;4.20;99.90;;;;;;5001634;28;20266;-61
2023/01/31 01:30:20;;;;;;;6.00;3.20;;;4.20;99.90;;;;;;5015281;28;20196;-60
2023/01/31 01:32:45;;;;;;;7.20;3.72;;;4.20;99.90;;;;;;5019667;28;20196;-61
2023/01/31 01:35:11;;;;;;;6.80;3.40;;;4.40;99.90;;;;;;5020141;28;20261;-61
2023/01/31 01:37:37;;;;;;;7.30;3.70;;;4.30;99.90;;;;;;5027475;28;20198;-61
2023/01/31 01:40:03;;;;;;;5.60;4.00;;;4.50;99.90;;;;;;5005807;28;21024;-61
2023/01/31 01:42:34;;;;;;;4.15;3.50;;;4.60;99.90;;;;;;5018605;28;20224;-61
2023/01/31 01:45:03;;;;;;;9.88;3.83;;;4.20;99.90;;;;;;5022452;28;20239;-61
2023/01/31 01:47:28;;;;;;;4.28;3.50;;;4.60;99.90;;;;;;5019459;28;20249;-61
2023/01/31 01:50:03;;;;;;;4.97;3.40;;;4.30;99.90;;;;;;5023678;28;20228;-61
2023/01/31 01:52:31;;;;;;;4.07;3.67;;;4.00;99.90;;;;;;5019593;28;20193;-62
2023/01/31 01:55:10;;;;;;;5.28;3.42;;;4.40;99.90;;;;;;5023897;28;20184;-59
2023/01/31 01:57:40;;;;;;;6.20;3.80;;;4.30;99.90;;;;;;5020596;28;20199;-61
2023/01/31 02:00:23;;;;;;;4.30;3.38;;;4.50;99.90;;;;;;5020305;28;20189;-59
2023/01/31 02:02:53;;;;;;;6.72;3.70;;;4.20;99.90;;;;;;5023729;28;20254;-61
2023/01/31 02:05:25;;;;;;;7.88;3.97;;;4.50;99.90;;;;;;5025003;28;20204;-61
2023/01/31 02:07:50;;;;;;;6.55;3.20;;;4.30;99.90;;;;;;5022350;28;20186;-61
2023/01/31 02:10:22;;;;;;;5.10;3.53;;;4.40;99.90;;;;;;5022078;28;20739;-61
2023/01/31 02:12:48;;;;;;;5.18;4.25;;;4.40;99.90;;;;;;5021701;28;20449;-60
2023/01/31 02:15:14;;;;;;;8.97;3.40;;;4.10;99.90;;;;;;5017223;28;20188;-62
2023/01/31 02:17:39;;;;;;;5.07;4.30;;;3.70;99.90;;;;;;5025923;28;20194;-61
2023/01/31 02:20:40;;;;;;;7.43;4.10;;;4.70;99.90;;;;;;5022829;28;20184;-61
2023/01/31 02:23:47;;;;;;;5.18;3.75;;;4.30;99.90;;;;;;4976094;28;20229;-59
2023/01/31 02:26:37;;;;;;;7.03;4.68;;;4.30;99.90;;;;;;5019426;28;20746;-59
2023/01/31 02:29:21;;;;;;;4.82;3.80;;;4.00;99.90;;;;;;5018393;28;20204;-60
2023/01/31 02:32:28;;;;;;;5.22;3.85;;;4.00;99.90;;;;;;5020683;28;20184;-60
2023/01/31 02:35:32;;;;;;;5.10;3.78;;;4.30;99.90;;;;;;4983192;28;20206;-61
2023/01/31 02:37:57;;;;;;;4.47;3.72;;;4.10;99.90;;;;;;5000786;28;20636;-62
2023/01/31 02:40:39;;;;;;;8.23;4.03;;;3.70;99.90;;;;;;5026284;28;20266;-59
2023/01/31 02:43:21;;;;;;;8.35;3.67;;;4.00;99.90;;;;;;5021021;28;20208;-61
2023/01/31 02:45:54;;;;;;;5.85;3.85;;;4.30;99.90;;;;;;5015469;28;20214;-60
2023/01/31 02:48:50;;;;;;;10.30;3.90;;;4.10;99.90;;;;;;5019132;28;20267;-60
2023/01/31 02:51:26;;;;;;;7.03;4.22;;;4.20;99.90;;;;;;5017665;28;20196;-60
2023/01/31 02:54:08;;;;;;;6.00;4.75;;;4.10;99.90;;;;;;5025787;28;20197;-61
2023/01/31 02:56:36;;;;;;;7.95;3.88;;;4.30;99.90;;;;;;5025175;28;20232;-61
2023/01/31 02:59:12;;;;;;;9.38;4.13;;;4.10;99.90;;;;;;5020020;28;20199;-60
2023/01/31 03:01:43;;;;;;;6.85;4.00;;;4.30;99.90;;;;;;5018287;28;20181;-60
2023/01/31 03:04:12;;;;;;;10.48;4.70;;;4.30;99.90;;;;;;5018495;28;20214;-59
2023/01/31 03:06:53;;;;;;;9.20;3.92;;;4.40;99.90;;;;;;5023794;28;20230;-63
2023/01/31 03:09:35;;;;;;;8.38;4.00;;;4.10;99.90;;;;;;5015602;28;20208;-63
2023/01/31 03:12:19;;;;;;;6.38;4.38;;;4.30;99.90;;;;;;5020786;28;20192;-63
2023/01/31 03:14:58;;;;;;;5.40;3.85;;;4.20;99.90;;;;;;5015541;28;20187;-62
2023/01/31 03:17:53;;;;;;;8.27;4.10;;;4.20;99.90;;;;;;5020764;28;20191;-61
2023/01/31 03:20:43;;;;;;;6.05;4.13;;;4.40;99.90;;;;;;5016783;28;20202;-61
2023/01/31 03:23:19;;;;;;;7.15;3.83;;;4.30;99.90;;;;;;5017204;28;20685;-62
2023/01/31 03:25:46;;;;;;;4.57;3.55;;;4.30;99.90;;;;;;5013041;28;20302;-63
2023/01/31 03:28:16;;;;;;;5.50;4.32;;;4.30;99.90;;;;;;5020912;28;20175;-60
2023/01/31 03:30:59;;;;;;;7.28;4.32;;;4.40;99.90;;;;;;5020514;28;20175;-60
2023/01/31 03:33:50;;;;;;;6.65;4.25;;;4.50;99.90;;;;;;5021784;28;20188;-60
2023/01/31 03:36:27;;;;;;;7.07;3.80;;;4.20;99.90;;;;;;5011559;28;20211;-60
2023/01/31 03:39:18;;;;;;;5.85;4.05;;;4.50;99.90;;;;;;5018066;28;20192;-61
2023/01/31 03:42:01;;;;;;;5.75;3.63;;;4.40;99.90;;;;;;5020003;28;20191;-60
2023/01/31 03:44:39;;;;;;;4.85;3.40;;;4.20;99.90;;;;;;5017544;28;20291;-61
2023/01/31 03:47:13;;;;;;;7.32;4.00;;;3.80;99.90;;;;;;4997836;28;20743;-60
2023/01/31 03:49:41;;;;;;;5.45;3.88;;;4.50;99.90;;;;;;5016594;28;20197;-60
2023/01/31 03:52:09;;;;;;;5.47;3.58;;;4.50;99.90;;;;;;5020844;28;20207;-61
2023/01/31 03:54:43;;;;;;;8.98;4.55;;;4.40;99.90;;;;;;5017087;28;20223;-61
2023/01/31 03:57:28;;;;;;;10.63;4.57;;;4.60;99.90;;;;;;5018558;28;20316;-62
2023/01/31 03:59:58;;;;;;;8.15;4.05;;;4.50;99.90;;;;;;5016989;28;20226;-60
2023/01/31 04:02:30;;;;;;;6.38;3.53;;;3.60;99.90;;;;;;5000589;28;20287;-60
2023/01/31 04:05:12;;;;;;;10.20;3.85;;;4.10;99.90;;;;;;5018390;28;20177;-60
2023/01/31 04:07:38;;;;;;;5.28;4.20;;;4.30;99.90;;;;;;5023128;28;20544;-60
2023/01/31 04:10:17;;;;;;;7.03;3.70;;;3.70;99.90;;;;;;5022945;28;20596;-60
2023/01/31 04:12:43;;;;;;;7.18;3.92;;;4.00;99.90;;;;;;5013375;28;20278;-60
2023/01/31 04:15:09;;;;;;;7.53;4.77;;;4.10;99.90;;;;;;5020244;28;20310;-61
2023/01/31 04:17:35;;;;;;;8.60;4.53;;;3.80;99.90;;;;;;5018543;28;20450;-60
2023/01/31 04:20:01;;;;;;;9.17;4.23;;;3.50;99.90;;;;;;5014974;28;20644;-60
2023/01/31 04:22:26;;;;;;;7.20;4.40;;;3.80;99.90;;;;;;5018189;28;20265;-59
2023/01/31 04:24:52;;;;;;;7.93;4.80;;;4.00;99.90;;;;;;5018818;28;20183;-60
2023/01/31 04:27:17;;;;;;;6.20;4.00;;;3.80;99.90;;;;;;5017318;28;20216;-60
2023/01/31 04:29:43;;;;;;;8.03;4.20;;;3.90;99.90;;;;;;5019431;28;20306;-60
2023/01/31 04:32:09;;;;;;;6.63;4.27;;;4.40;99.90;;;;;;5017351;28;20230;-60
2023/01/31 04:34:34;;;;;;;4.70;4.23;;;4.10;99.90;;;;;;5020833;28;20191;-62
2023/01/31 04:37:00;;;;;;;7.97;4.67;;;3.80;99.90;;;;;;5022005;28;20214;-61
2023/01/31 04:39:26;;;;;;;8.53;4.83;;;3.50;99.90;;;;;;5014229;28;20293;-61
2023/01/31 04:41:51;;;;;;;8.07;4.68;;;3.70;99.90;;;;;;5007842;28;20218;-60
2023/01/31 04:44:17;;;;;;;5.13;4.40;;;3.60;99.90;;;;;;5017823;28;20222;-61
2023/01/31 04:46:45;;;;;;;7.13;4.27;;;3.10;99.90;;;;;;5020034;28;20218;-61
2023/01/31 04:49:11;;;;;;;7.65;4.50;;;3.60;99.90;;;;;;5020332;28;20643;-62
2023/01/31 04:51:37;;;;;;;7.32;4.35;;;3.50;99.90;;;;;;5004631;28;20193;-61
2023/01/31 04:54:03;;;;;;;12.60;5.10;;;3.60;99.90;;;;;;5016215;28;20256;-64
2023/01/31 04:56:29;;;;;;;5.80;4.35;;;3.60;99.90;;;;;;5019096;28;20219;-59
2023/01/31 04:58:54;;;;;;;7.60;4.37;;;3.80;99.90;;;;;;5017343;28;20536;-61
2023/01/31 05:01:20;;;;;;;8.10;4.80;;;3.40;99.90;;;;;;5003507;28;20191;-61
2023/01/31 05:03:46;;;;;;;8.10;4.47;;;3.40;99.90;;;;;;5021316;28;20754;-61
2023/01/31 05:06:11;;;;;;;7.37;4.47;;;3.30;99.90;;;;;;5022141;28;20464;-61
2023/01/31 05:08:37;;;;;;;7.40;4.40;;;3.40;99.90;;;;;;5023289;28;20180;-62
2023/01/31 05:11:04;;;;;;;6.80;4.30;;;3.00;99.90;;;;;;5016954;28;20565;-62
2023/01/31 05:13:31;;;;;;;9.60;4.43;;;3.40;99.90;;;;;;5019293;28;20189;-64
2023/01/31 05:15:56;;;;;;;8.95;5.15;;;3.30;99.90;;;;;;5018431;28;20208;-61
2023/01/31 05:18:23;;;;;;;8.70;5.10;;;3.40;99.90;;;;;;5016168;28;20663;-62
2023/01/31 05:20:49;;;;;;;12.13;4.88;;;3.40;99.90;;;;;;5000297;28;20648;-62
2023/01/31 05:23:16;;;;;;;8.93;5.07;;;3.40;99.90;;;;;;5020405;28;20724;-62
2023/01/31 05:25:42;;;;;;;6.35;5.03;;;3.70;99.90;;;;;;5016947;28;20208;-62
2023/01/31 05:28:07;;;;;;;8.23;4.77;;;3.50;99.90;;;;;;5017762;28;20695;-63
2023/01/31 05:30:34;;;;;;;8.30;4.67;;;3.40;99.90;;;;;;5020058;28;20452;-63
2023/01/31 05:33:00;;;;;;;6.63;5.20;;;3.50;99.90;;;;;;5017282;28;20455;-63
2023/01/31 05:35:25;;;;;;;8.90;5.00;;;3.70;99.90;;;;;;5019602;28;20224;-63
2023/01/31 05:37:53;;;;;;;7.63;4.70;;;3.50;99.90;;;;;;5013515;28;20188;-63
2023/01/31 05:40:20;;;;;;;11.20;6.10;;;3.70;99.90;;;;;;5017686;28;20528;-63
2023/01/31 05:42:52;;;;;;;5.80;4.70;;;3.80;99.90;;;;;;5014183;28;20202;-63
2023/01/31 05:45:18;;;;;;;7.30;4.45;;;3.90;99.90;;;;;;5021279;28;20328;-62
2023/01/31 05:47:45;;;;;;;8.93;5.70;;;4.10;99.90;;;;;;5018497;28;20290;-62
2023/01/31 05:50:11;;;;;;;7.50;5.32;;;4.20;99.90;;;;;;5024415;28;20194;-63
2023/01/31 05:52:36;;;;;;;10.80;5.10;;;3.60;99.90;;;;;;5019091;28;20178;-63
2023/01/31 05:55:02;;;;;;;7.00;5.30;;;3.60;99.90;;;;;;5018702;28;20183;-62
2023/01/31 05:57:28;;;;;;;8.37;6.53;;;3.60;99.90;;;;;;5026081;28;20187;-62
2023/01/31 05:59:53;;;;;;;6.60;5.37;;;3.40;99.90;;;;;;5021207;28;20202;-62
2023/01/31 06:02:19;;;;;;;9.60;5.00;;;3.30;99.90;;;;;;5020498;28;21279;-61
2023/01/31 06:04:44;;;;;;;7.27;4.37;;;3.30;99.90;;;;;;5006047;28;20261;-61
2023/01/31 06:07:10;;;;;;;10.60;4.60;;;2.70;99.90;;;;;;5016512;28;20265;-61
2023/01/31 06:09:37;;;;;;;8.20;5.40;;;3.00;99.90;;;;;;5017158;28;20179;-61
2023/01/31 06:12:04;;;;;;;8.18;4.93;;;2.90;99.90;;;;;;5017544;28;20187;-61
2023/01/31 06:14:29;;;;;;;6.82;5.30;;;3.10;99.90;;;;;;5022208;28;20189;-62
2023/01/31 06:16:55;;;;;;;10.40;5.10;;;2.50;99.90;;;;;;5021319;28;20215;-62
2023/01/31 06:19:24;;;;;;;6.30;4.13;;;3.20;99.90;;;;;;5020553;28;20198;-61
2023/01/31 06:21:50;;;;;;;7.57;5.55;;;2.30;99.90;;;;;;5016196;28;20179;-61
2023/01/31 06:24:16;;;;;;;7.82;5.28;;;2.80;99.90;;;;;;5020372;28;20206;-61
2023/01/31 06:26:42;;;;;;;9.60;4.70;;;2.30;99.90;;;;;;5016317;28;20578;-61
2023/01/31 06:29:08;;;;;;;5.73;5.10;;;2.70;99.90;;;;;;5017632;28;20214;-60
2023/01/31 06:31:34;;;;;;;8.68;5.00;;;2.70;99.90;;;;;;5016705;28;20207;-62
2023/01/31 06:33:59;;;;;;;8.00;5.47;;;2.90;99.90;;;;;;5019058;28;20679;-61
2023/01/31 06:36:25;;;;;;;7.30;5.43;;;2.10;99.90;;;;;;5002065;28;20213;-61
2023/01/31 06:38:51;;;;;;;7.80;5.40;;;2.70;99.90;;;;;;5019080;28;20760;-62
2023/01/31 06:41:18;;;;;;;20.65;5.50;;;1.90;99.90;;;;;;5020683;28;20248;-62
2023/01/31 06:43:44;;;;;;;14.38;5.72;;;2.10;99.90;;;;;;5021443;28;20690;-61
2023/01/31 06:46:10;;;;;;;6.40;5.40;;;2.80;99.90;;;;;;5016350;28;20223;-61
2023/01/31 06:48:35;;;;;;;8.93;4.93;;;2.40;99.90;;;;;;5022613;28;20190;-61
2023/01/31 06:51:01;;;;;;;6.53;5.50;;;2.30;99.90;;;;;;5016632;28;20183;-62
2023/01/31 06:53:27;;;;;;;9.50;5.73;;;2.50;99.90;;;;;;5018564;28;20178;-61
2023/01/31 06:55:52;;;;;;;9.03;6.10;;;2.50;99.90;;;;;;5016070;28;20536;-62
2023/01/31 06:58:18;;;;;;;7.97;5.37;;;2.50;99.90;;;;;;5019503;28;20681;-61
2023/01/31 07:00:43;;;;;;;9.13;5.77;;;2.40;99.90;;;;;;5018340;28;20222;-61
2023/01/31 07:03:09;;;;;;;8.90;5.23;;;2.50;99.90;;;;;;5000221;28;20208;-62
2023/01/31 07:05:35;;;;;;;9.90;6.10;;;2.40;99.90;;;;;;5004539;28;20219;-63
2023/01/31 07:08:00;;;;;;;5.97;5.33;;;2.20;99.90;;;;;;5005950;28;20197;-63
2023/01/31 07:10:26;;;;;;;15.70;6.10;;;2.40;99.90;;;;;;5023040;28;20183;-62
2023/01/31 07:12:51;;;;;;;8.93;5.00;;;2.40;99.90;;;;;;5015837;28;20569;-60
2023/01/31 07:15:17;;;;;;;9.53;6.93;;;2.20;99.90;;;;;;5018183;28;20234;-62
2023/01/31 07:17:43;;;;;;;6.77;4.90;;;2.40;99.90;;;;;;5019279;28;20183;-62
2023/01/31 07:20:09;;;;;;;9.37;5.37;;;2.20;99.90;;;;;;5014950;28;20254;-62
2023/01/31 07:22:35;;;;;;;6.00;5.30;;;2.10;99.90;;;;;;5019513;28;20214;-62
2023/01/31 07:25:00;;;;;;;7.70;5.40;;;2.50;99.90;;;;;;5014497;28;20226;-61
2023/01/31 07:27:26;;;;;;;10.53;6.10;;;2.30;99.90;;;;;;4998477;28;20228;-63
2023/01/31 07:29:52;;;;;;;12.03;6.60;;;2.10;99.90;;;;;;4997607;28;20410;-61
2023/01/31 07:32:17;;;;;;;8.50;6.23;;;2.40;99.90;;;;;;5019378;28;20491;-61
2023/01/31 07:34:43;;;;;;;6.77;5.57;;;2.10;99.90;;;;;;5016882;28;20230;-61
2023/01/31 07:37:08;;;;;;;9.53;6.17;;;2.10;99.90;;;;;;5016762;28;20207;-61
2023/01/31 07:39:34;;;;;;;8.63;5.80;;;2.40;99.90;;;;;;5000907;28;20230;-62
2023/01/31 07:42:00;;;;;;;9.43;5.77;;;2.50;99.90;;;;;;5015571;28;20194;-61
2023/01/31 07:44:25;;;;;;;7.97;6.90;;;2.00;99.90;;;;;;5019201;28;20237;-60
2023/01/31 07:46:53;;;;;;;5.43;4.70;;;2.80;99.90;;;;;;5017736;28;20693;-61
2023/01/31 07:49:19;;;;;;;8.95;4.90;;;2.80;99.90;;;;;;5003986;28;20197;-62
2023/01/31 07:51:45;;;;;;;10.23;6.43;;;2.60;99.90;;;;;;5014863;28;20266;-62
2023/01/31 07:54:10;;;;;;;5.83;4.40;;;2.30;99.90;;;;;;5017138;28;20448;-61
2023/01/31 07:56:36;;;;;;;7.20;5.10;;;3.10;99.90;;;;;;5014917;28;20587;-62
2023/01/31 07:59:02;;;;;;;12.57;4.93;;;3.20;99.90;;;;;;5016535;28;20175;-62
2023/01/31 08:04:15;;;;;;;8.65;5.20;;;2.50;99.90;;;;;;5019532;28;20989;-61
2023/01/31 08:06:43;;;;;;;8.70;4.80;;;3.40;99.90;;;;;;5020106;28;20253;-61
2023/01/31 08:09:09;;;;;;;12.73;4.95;;;3.30;99.90;;;;;;5016002;28;20636;-60
2023/01/31 08:11:34;;;;;;;6.17;4.60;;;3.00;99.90;;;;;;5015991;28;20242;-62
2023/01/31 08:14:00;;;;;;;8.23;5.17;;;3.60;99.90;;;;;;5020441;28;20456;-62
2023/01/31 08:16:26;;;;;;;13.53;4.90;;;3.60;99.90;;;;;;5012883;28;20215;-60
2023/01/31 08:18:52;;;;;;;8.77;4.40;;;3.20;99.90;;;;;;5015467;28;20270;-61
2023/01/31 08:21:18;;;;;;;7.63;4.20;;;3.80;99.90;;;;;;5001067;28;20653;-61
2023/01/31 08:23:44;;;;;;;7.05;4.72;;;3.90;99.90;;;;;;5019940;28;20473;-61
2023/01/31 08:26:11;;;;;;;7.00;4.80;;;3.50;99.90;;;;;;4996579;28;20242;-61
2023/01/31 08:28:38;;;;;;;7.65;5.05;;;4.10;99.90;;;;;;5016027;28;20222;-63
2023/01/31 08:31:05;;;;;;;6.90;4.90;;;3.60;99.90;;;;;;5001170;28;20233;-62
2023/01/31 08:33:30;;;;;;;7.78;5.07;;;4.30;99.90;;;;;;5019275;28;20548;-62
2023/01/31 08:35:56;;;;;;;5.10;3.57;;;4.50;99.90;;;;;;5024029;28;20265;-63
2023/01/31 08:38:21;;;;;;;6.60;3.70;;;4.10;99.90;;;;;;5016470;28;20191;-62
2023/01/31 08:40:47;;;;;;;7.50;3.67;;;4.80;99.90;;;;;;5013608;28;20661;-62
2023/01/31 08:43:13;;;;;;;6.43;4.67;;;4.90;99.90;;;;;;5017007;28;20216;-61
2023/01/31 08:45:39;;;;;;;11.00;4.35;;;5.30;99.90;;;;;;5014760;28;20224;-62
2023/01/31 08:48:05;;;;;;;7.17;3.80;;;5.50;99.90;;;;;;5020639;28;20646;-62
2023/01/31 08:50:31;;;;;;;5.70;3.75;;;5.40;99.90;;;;;;5017418;28;20188;-62
2023/01/31 08:52:59;;;;;;;8.32;4.40;;;5.50;99.90;;;;;;5016203;28;20268;-62
2023/01/31 08:55:26;;;;;;;7.28;4.93;;;5.50;99.90;;;;;;5016398;28;20207;-62
2023/01/31 08:57:52;;;;;;;6.70;4.78;;;5.60;99.90;;;;;;5016622;28;20762;-62
2023/01/31 09:00:19;;;;;;;9.77;6.32;;;5.90;99.90;;;;;;5018675;28;20201;-63
2023/01/31 09:02:50;;;;;;;8.90;4.20;;;5.60;99.90;;;;;;5016965;28;20202;-62
2023/01/31 09:05:16;;;;;;;7.93;4.30;;;6.10;99.90;;;;;;5014796;28;20186;-62
2023/01/31 09:07:42;;;;;;;6.83;4.10;;;6.00;99.90;;;;;;5019187;28;20599;-62
2023/01/31 09:10:08;;;;;;;6.90;4.40;;;6.00;99.90;;;;;;5021674;28;20210;-62
2023/01/31 09:12:34;;;;;;;9.88;4.32;;;6.40;99.90;;;;;;5016979;28;20246;-62
2023/01/31 09:15:00;;;;;;;8.23;3.63;;;6.50;99.90;;;;;;5002344;28;20516;-63
2023/01/31 09:17:26;;;;;;;9.90;4.50;;;6.30;99.90;;;;;;5018770;28;20233;-64
2023/01/31 09:19:51;;;;;;;8.97;4.00;;;6.50;99.90;;;;;;5014271;28;20706;-62
2023/01/31 09:22:17;;;;;;;9.30;4.30;;;6.70;99.90;;;;;;5015066;28;20681;-62
2023/01/31 09:24:42;;;;;;;7.80;3.77;;;7.00;99.90;;;;;;5022957;28;20218;-62
2023/01/31 09:27:08;;;;;;;5.47;3.70;;;7.20;99.90;;;;;;5016684;28;20234;-62
2023/01/31 09:29:33;;;;;;;6.00;3.67;;;7.20;99.90;;;;;;5018619;28;20198;-62
2023/01/31 09:31:59;;;;;;;5.87;3.90;;;7.20;99.90;;;;;;4999754;28;20187;-63
2023/01/31 09:34:25;;;;;;;7.60;3.90;;;7.30;99.90;;;;;;5022208;28;20674;-63
2023/01/31 09:36:50;;;;;;;11.67;4.20;;;7.40;99.90;;;;;;5001620;28;20522;-62
2023/01/31 09:39:16;;;;;;;9.43;4.10;;;7.20;99.90;;;;;;5017981;28;20202;-62
2023/01/31 09:41:50;;;;;;;6.00;4.43;;;7.70;99.80;;;;;;5023711;28;20191;-62
2023/01/31 09:44:30;;;;;;;5.43;3.47;;;7.30;99.50;;;;;;5022811;28;20218;-62
2023/01/31 09:47:07;;;;;;;5.40;3.70;;;7.70;99.10;;;;;;5016540;28;20222;-62
2023/01/31 09:49:44;;;;;;;7.03;2.90;;;7.90;98.40;;;;;;5019195;28;20581;-64
2023/01/31 09:52:10;;;;;;;8.18;4.30;;;8.10;98.30;;;;;;5018122;28;20651;-61
2023/01/31 09:54:39;;;;;;;9.63;3.55;;;8.10;97.80;;;;;;5020245;28;20282;-63
2023/01/31 09:57:10;;;;;;;9.07;4.05;;;7.80;97.50;;;;;;4999321;28;20209;-62
2023/01/31 09:59:52;;;;;;;5.43;3.25;;;7.40;98.20;;;;;;5019939;28;20733;-62
2023/01/31 10:02:24;;;;;;;7.35;3.60;;;7.60;98.10;;;;;;5020596;28;20726;-62
2023/01/31 10:05:20;;;;;;;5.13;3.20;;;7.50;98.20;;;;;;5019971;28;20706;-62
2023/01/31 10:07:58;;;;;;;3.53;2.95;;;7.30;98.00;;;;;;5002601;28;20221;-62
2023/01/31 10:10:35;;;;;;;4.35;3.03;;;7.40;98.30;;;;;;5005089;28;20670;-62
2023/01/31 10:13:10;;;;;;;6.63;3.65;;;7.50;98.40;;;;;;5017892;28;20189;-63
2023/01/31 10:15:47;;;;;;;4.45;3.22;;;7.30;98.60;;;;;;5020419;28;20292;-62
2023/01/31 10:18:21;;;;;;;6.03;3.80;;;7.70;98.90;;;;;;5017188;28;20186;-63
2023/01/31 10:21:05;;;;;;;13.18;4.20;;;7.30;98.60;;;;;;5020122;28;20596;-62
2023/01/31 10:23:38;;;;;;;8.07;3.17;;;7.30;98.60;;;;;;5021677;28;20275;-62
2023/01/31 10:26:17;;;;;;;6.72;4.13;;;7.70;98.70;;;;;;5025161;28;20194;-63
2023/01/31 10:28:54;;;;;;;8.23;4.57;;;7.50;98.40;;;;;;5022654;28;20190;-61
2023/01/31 10:31:26;;;;;;;4.75;3.33;;;7.90;98.30;;;;;;5019686;28;20554;-62
2023/01/31 10:33:57;;;;;;;5.43;3.15;;;7.50;98.10;;;;;;5014081;28;20175;-62
2023/01/31 10:36:43;;;;;;;4.72;2.85;;;7.40;98.10;;;;;;5018621;28;20723;-62
2023/01/31 10:39:14;;;;;;;3.75;3.10;;;7.50;98.00;;;;;;5020029;28;20189;-63
2023/01/31 10:42:06;;;;;;;6.80;4.25;;;7.60;98.30;;;;;;5019182;28;20186;-62
2023/01/31 10:44:47;;;;;;;10.13;3.65;;;7.80;98.70;;;;;;5021542;28;20760;-62
2023/01/31 10:47:15;;;;;;;4.05;2.80;;;8.00;97.40;;;;;;5019827;28;20679;-62
2023/01/31 10:49:44;;;;;;;4.90;2.90;;;8.00;97.10;;;;;;5017823;28;20186;-63
2023/01/31 10:52:15;;;;;;;10.85;2.92;;;7.70;97.00;;;;;;5021368;28;20732;-63
2023/01/31 10:54:47;;;;;;;6.35;2.97;;;7.80;96.80;;;;;;5016272;28;20675;-63
2023/01/31 10:57:14;;;;;;;9.30;3.65;;;7.60;97.40;;;;;;5018304;28;20683;-62
2023/01/31 10:59:44;;;;;;;8.55;3.72;;;7.90;97.70;;;;;;5011518;28;20345;-62
2023/01/31 11:02:22;;;;;;;7.55;4.90;;;7.50;97.30;;;;;;5006556;28;20185;-63
2023/01/31 11:04:50;;;;;;;4.93;4.00;;;7.80;97.20;;;;;;5018256;28;20214;-63
2023/01/31 11:07:16;;;;;;;11.48;3.95;;;7.60;97.30;;;;;;5017723;28;20211;-63
2023/01/31 11:09:50;;;;;;;5.60;3.07;;;8.00;97.60;;;;;;5019428;28;20194;-62
2023/01/31 11:12:16;;;;;;;6.03;3.28;;;7.80;97.40;;;;;;5000161;28;20662;-62
2023/01/31 11:14:42;;;;;;;10.73;3.15;;;7.80;97.40;;;;;;5023211;28;20190;-62
2023/01/31 11:17:19;;;;;;;6.60;2.60;;;7.80;97.10;;;;;;5022206;28;20359;-61
2023/01/31 11:19:54;;;;;;;6.63;3.10;;;7.70;96.70;;;;;;5027395;28;20186;-62
2023/01/31 11:22:36;;;;;;;9.88;3.25;;;7.90;97.10;;;;;;5001078;28;20578;-63
2023/01/31 11:25:03;;;;;;;10.68;3.20;;;8.10;97.10;;;;;;5019664;28;20213;-63
2023/01/31 11:27:43;;;;;;;6.05;3.17;;;8.00;96.90;;;;;;5019942;28;20607;-62
2023/01/31 11:30:24;;;;;;;8.05;3.28;;;7.80;97.10;;;;;;5020612;28;20248;-63
2023/01/31 11:32:50;;;;;;;5.20;2.95;;;7.50;97.40;;;;;;5025798;28;20236;-63
2023/01/31 11:35:15;;;;;;;5.27;3.30;;;7.50;97.30;;;;;;5027473;28;20206;-64
2023/01/31 11:37:54;;;;;;;4.67;3.23;;;7.20;97.60;;;;;;5023669;28;20183;-63
2023/01/31 11:40:32;;;;;;;7.50;4.18;;;7.40;97.80;;;;;;5016394;28;20274;-63
2023/01/31 11:43:18;;;;;;;9.57;3.80;;;7.70;98.20;;;;;;5019538;28;20190;-63
2023/01/31 11:45:52;;;;;;;6.65;4.32;;;7.80;97.60;;;;;;4992302;28;20215;-65
2023/01/31 11:48:22;;;;;;;8.35;3.63;;;7.70;97.30;;;;;;5020952;28;20554;-62
2023/01/31 11:50:56;;;;;;;18.50;7.90;;;8.30;97.70;;;;;;5024972;28;20625;-62
2023/01/31 11:53:23;;;;;;;7.53;4.35;;;7.90;97.10;;;;;;5017794;28;20206;-63
2023/01/31 11:55:53;;;;;;;5.72;3.45;;;8.10;96.90;;;;;;5015079;28;20203;-63
2023/01/31 11:58:30;;;;;;;21.48;3.50;;;7.60;96.50;;;;;;5005838;28;20326;-61
2023/01/31 12:01:11;;;;;;;7.78;3.58;;;8.50;96.70;;;;;;5015381;28;20659;-63
2023/01/31 12:03:37;;;;;;;9.65;3.45;;;8.00;96.30;;;;;;5020506;28;20691;-63
2023/01/31 12:06:06;;;;;;;8.98;3.50;;;8.40;97.00;;;;;;5022591;28;20199;-64
2023/01/31 12:08:40;;;;;;;6.57;3.33;;;8.00;96.40;;;;;;5015554;28;20684;-61
2023/01/31 12:11:18;;;;;;;11.95;3.13;;;8.30;96.70;;;;;;5019963;28;20232;-62
2023/01/31 12:13:52;;;;;;;4.00;2.85;;;8.10;96.30;;;;;;5023431;28;20201;-62
2023/01/31 12:16:25;;;;;;;6.65;2.70;;;8.30;96.10;;;;;;5024952;28;20803;-62
2023/01/31 12:19:13;;;;;;;14.27;3.10;;;8.60;96.00;;;;;;5022236;28;20195;-62
2023/01/31 12:22:09;;;;;;;4.03;2.20;;;8.10;95.80;;;;;;5002061;28;20190;-64
2023/01/31 12:25:14;;;;;;;7.30;2.67;;;8.30;96.10;;;;;;5017535;28;20198;-62
2023/01/31 12:28:14;;;;;;;4.85;2.20;;;8.20;95.50;;;;;;4984439;28;20294;-61
2023/01/31 12:31:13;;;;;;;5.95;2.50;;;8.10;95.50;;;;;;5016918;28;20183;-61
2023/01/31 12:34:07;;;;;;;9.98;2.50;;;8.40;95.50;;;;;;5019239;28;20186;-63
2023/01/31 12:36:38;;;;;;;9.38;2.92;;;8.30;94.40;;;;;;5027866;28;20600;-62
2023/01/31 12:39:16;;;;;;;2.38;2.15;;;8.20;94.40;;;;;;5017559;28;20222;-64
2023/01/31 12:41:53;;;;;;;5.32;2.70;;;8.50;94.20;;;;;;5019355;28;20528;-62
2023/01/31 12:44:57;;;;;;;5.05;3.30;;;8.40;93.90;;;;;;5004511;28;20206;-64
2023/01/31 12:47:45;;;;;;;11.35;6.88;;;8.60;93.50;;;;;;4977867;28;20700;-64
2023/01/31 12:50:10;;;;;;;14.52;3.30;;;8.60;94.00;;;;;;5017869;28;20194;-65
2023/01/31 12:53:26;;;;;;;4.10;2.13;;;8.20;93.80;;;;;;5019435;28;20247;-63
2023/01/31 12:56:01;;;;;;;5.43;2.22;;;8.50;94.10;;;;;;4918729;29;20683;-63
2023/01/31 12:58:35;;;;;;;7.13;2.53;;;8.30;93.80;;;;;;5018549;28;20661;-63
2023/01/31 13:01:06;;;;;;;6.38;2.38;;;8.10;94.10;;;;;;5007783;28;20184;-63
2023/01/31 13:03:46;;;;;;;7.63;2.00;;;8.20;94.50;;;;;;5024808;28;20568;-63
2023/01/31 13:06:17;;;;;;;7.43;3.00;;;7.90;94.80;;;;;;5021481;28;20202;-63
2023/01/31 13:08:58;;;;;;;4.70;2.60;;;7.80;95.30;;;;;;5022637;28;20271;-62
2023/01/31 13:11:29;;;;;;;7.25;3.33;;;7.80;95.50;;;;;;5025389;28;20195;-63
2023/01/31 13:14:04;;;;;;;3.60;2.42;;;7.40;95.50;;;;;;5023740;28;20328;-64
2023/01/31 13:16:36;;;;;;;3.90;2.65;;;7.30;96.10;;;;;;5024122;28;20301;-63